Time;durP1;ratioP1;P1;durP2;ratioP2;P2;SDS_P1;SDS_P2;PMS_P1;PMS_P2;Temp;Humidity;BMP_temperature;BMP_pressure;BME280_temperature;BME280_humidity;BME280_pressure;Samples;Min_cycle;Max_cycle;Signal;HPM_P1;HPM_P2
2022/10/06 09:14:21;;;;;;;5.23;1.73;;;15.90;1.00;;;;;;4996973;28;20436;-80
2022/10/06 09:16:53;;;;;;;4.40;1.40;;;16.00;1.00;;;;;;5013089;28;20929;-80
2022/10/06 09:19:24;;;;;;;3.53;1.30;;;16.10;1.00;;;;;;5009766;28;20480;-80
2022/10/06 09:21:53;;;;;;;8.70;1.67;;;16.20;1.00;;;;;;5007934;28;20437;-80
2022/10/06 09:24:25;;;;;;;3.90;1.37;;;16.30;1.00;;;;;;5001690;28;20460;-80
2022/10/06 09:26:57;;;;;;;2.97;1.83;;;16.30;1.00;;;;;;5000030;28;20440;-80
2022/10/06 09:29:30;;;;;;;7.40;1.90;;;16.30;1.00;;;;;;4998846;28;20892;-80
2022/10/06 09:31:58;;;;;;;3.23;1.80;;;16.30;1.00;;;;;;4997978;28;20954;-80
2022/10/06 09:34:33;;;;;;;6.33;1.70;;;16.00;99.90;;;;;;4997731;28;20456;-80
2022/10/06 09:37:02;;;;;;;6.70;1.40;;;16.60;1.00;;;;;;4996455;28;20444;-80
2022/10/06 09:39:35;;;;;;;3.67;1.47;;;16.40;1.00;;;;;;4995640;28;20442;-80
2022/10/06 09:42:03;;;;;;;4.10;1.90;;;16.40;1.00;;;;;;4995023;28;20447;-80
2022/10/06 09:44:41;;;;;;;7.60;1.57;;;16.30;1.00;;;;;;4996594;28;20492;-80
2022/10/06 09:47:33;;;;;;;4.67;1.40;;;16.30;1.00;;;;;;4995112;28;20515;-80
2022/10/06 09:50:18;;;;;;;6.83;1.80;;;16.30;1.00;;;;;;4997471;28;20548;-80
2022/10/06 09:53:10;;;;;;;5.40;2.63;;;16.40;1.00;;;;;;5008244;28;20508;-80
2022/10/06 09:55:46;;;;;;;3.13;1.60;;;16.40;1.00;;;;;;5011193;28;20459;-80
2022/10/06 09:58:21;;;;;;;6.23;1.90;;;16.50;1.00;;;;;;5003663;28;20464;-80
2022/10/06 10:00:53;;;;;;;8.07;2.53;;;16.50;1.00;;;;;;4999819;28;20492;-81
2022/10/06 10:03:21;;;;;;;5.17;2.77;;;16.60;99.90;;;;;;4999259;28;20414;-80
2022/10/06 10:05:50;;;;;;;7.37;5.47;;;16.70;1.00;;;;;;4998687;28;20946;-80
2022/10/06 10:08:22;;;;;;;5.90;5.07;;;16.70;1.00;;;;;;4998789;28;20444;-80
2022/10/06 10:10:50;;;;;;;8.40;5.37;;;16.70;1.00;;;;;;4998206;28;20485;-80
2022/10/06 10:13:22;;;;;;;10.13;5.83;;;16.70;1.00;;;;;;4998189;28;20452;-80
2022/10/06 10:15:55;;;;;;;5.80;2.40;;;16.70;1.00;;;;;;4998154;28;21036;-80
2022/10/06 10:18:26;;;;;;;3.07;1.97;;;16.70;1.00;;;;;;4998390;28;20488;-81
2022/10/06 10:20:56;;;;;;;5.77;1.70;;;16.70;1.00;;;;;;5003205;28;20468;-81
2022/10/06 10:23:28;;;;;;;5.13;1.80;;;16.70;1.00;;;;;;5003980;28;20519;-80
2022/10/06 10:26:20;;;;;;;4.57;2.30;;;16.70;1.00;;;;;;5001590;28;20433;-80
2022/10/06 10:29:03;;;;;;;3.03;2.00;;;16.90;99.90;;;;;;4997550;28;20499;-80
2022/10/06 10:31:43;;;;;;;1.80;1.50;;;16.70;1.00;;;;;;4998087;28;20439;-80
2022/10/06 10:34:22;;;;;;;8.70;2.27;;;17.10;55.80;;;;;;4998293;28;20457;-80
2022/10/06 10:36:53;;;;;;;2.37;1.80;;;16.60;1.00;;;;;;4997449;28;20452;-80
2022/10/06 10:39:30;;;;;;;3.87;1.70;;;16.60;1.00;;;;;;4997749;28;20484;-80
2022/10/06 10:41:59;;;;;;;5.00;3.27;;;16.70;1.00;;;;;;4997237;28;20445;-80
2022/10/06 10:44:31;;;;;;;7.57;4.07;;;16.70;1.00;;;;;;4997110;28;20435;-80
2022/10/06 10:47:11;;;;;;;5.20;2.20;;;17.20;13.20;;;;;;4997673;28;20896;-80
2022/10/06 10:49:44;;;;;;;2.00;1.40;;;16.70;1.00;;;;;;4997366;28;20563;-80
2022/10/06 10:52:16;;;;;;;3.07;1.70;;;16.70;1.00;;;;;;4998853;28;20795;-80
2022/10/06 10:54:47;;;;;;;4.43;1.87;;;16.70;1.00;;;;;;5001090;28;20433;-80
2022/10/06 10:57:17;;;;;;;3.40;1.70;;;16.70;1.00;;;;;;4998256;28;20787;-80
2022/10/06 10:59:59;;;;;;;2.87;1.70;;;16.80;1.00;;;;;;4996993;28;20904;-80
2022/10/06 11:02:28;;;;;;;3.43;1.57;;;16.80;1.00;;;;;;4997032;28;20930;-80
2022/10/06 11:05:01;;;;;;;3.40;1.60;;;16.80;1.00;;;;;;4997173;28;20462;-80
2022/10/06 11:07:33;;;;;;;4.10;1.50;;;16.90;1.00;;;;;;4996937;28;20804;-80
2022/10/06 11:10:07;;;;;;;4.10;1.93;;;16.90;1.00;;;;;;4997149;28;20472;-80
2022/10/06 11:13:04;;;;;;;2.40;1.23;;;17.00;1.00;;;;;;4997078;28;20448;-80
2022/10/06 11:15:47;;;;;;;7.53;1.90;;;17.30;1.00;;;;;;4997160;28;20432;-80
2022/10/06 11:18:25;;;;;;;4.93;1.63;;;17.20;1.00;;;;;;5000272;28;20491;-80
2022/10/06 11:20:57;;;;;;;1.60;1.50;;;17.30;1.00;;;;;;5002939;28;20462;-80
2022/10/06 11:23:40;;;;;;;6.30;1.70;;;17.30;1.00;;;;;;4999281;28;20939;-80
2022/10/06 11:26:17;;;;;;;5.80;2.00;;;17.50;1.00;;;;;;4996977;28;20961;-80
2022/10/06 11:28:49;;;;;;;5.17;1.97;;;18.50;1.00;;;;;;4997125;28;20424;-80
2022/10/06 11:31:29;;;;;;;10.50;2.27;;;17.30;1.00;;;;;;4999266;28;20892;-81
2022/10/06 11:34:00;;;;;;;3.47;1.97;;;17.20;1.00;;;;;;5000877;28;20436;-80
2022/10/06 11:36:38;;;;;;;5.57;2.47;;;17.20;1.00;;;;;;4997110;28;20439;-80
2022/10/06 11:39:15;;;;;;;3.40;2.20;;;17.20;1.00;;;;;;4996872;28;21032;-80
2022/10/06 11:41:45;;;;;;;10.50;5.57;;;17.20;1.00;;;;;;4997186;28;20428;-80
2022/10/06 11:44:19;;;;;;;4.83;2.73;;;17.20;1.00;;;;;;4995322;28;20407;-80
2022/10/06 11:46:53;;;;;;;2.83;1.53;;;17.10;1.00;;;;;;4998289;28;20441;-80
2022/10/06 11:49:58;;;;;;;7.37;1.30;;;17.20;1.00;;;;;;5003933;28;20466;-80
2022/10/06 11:52:55;;;;;;;8.67;6.03;;;17.20;1.00;;;;;;5004210;28;20411;-81
2022/10/06 11:55:25;;;;;;;4.93;1.47;;;17.20;1.00;;;;;;4997241;28;20466;-80
2022/10/06 11:58:11;;;;;;;6.40;1.40;;;17.30;1.00;;;;;;4996238;28;20488;-81
2022/10/06 12:00:47;;;;;;;4.87;1.73;;;17.20;1.00;;;;;;4996168;28;20472;-80
2022/10/06 12:03:34;;;;;;;10.13;2.73;;;17.20;1.00;;;;;;4996601;28;20800;-80
2022/10/06 12:06:02;;;;;;;2.93;1.87;;;17.20;1.00;;;;;;4996757;28;20851;-80
2022/10/06 12:08:36;;;;;;;4.63;1.57;;;17.20;1.00;;;;;;5000309;28;20436;-80
2022/10/06 12:11:04;;;;;;;4.67;2.10;;;17.20;1.00;;;;;;4999538;28;20998;-80
2022/10/06 12:13:37;;;;;;;2.23;1.60;;;17.20;1.00;;;;;;5000370;28;20463;-80
2022/10/06 12:16:18;;;;;;;6.97;2.13;;;17.40;1.00;;;;;;4999779;28;20456;-81
2022/10/06 12:18:51;;;;;;;2.73;1.90;;;17.70;1.00;;;;;;5000812;28;20513;-79
2022/10/06 12:21:43;;;;;;;4.20;1.80;;;17.40;1.00;;;;;;5033964;22;20561;-85
2022/10/06 12:24:46;;;;;;;9.60;2.63;;;17.60;1.00;;;;;;5033800;28;20478;-86
2022/10/06 12:28:01;;;;;;;3.97;1.60;;;18.10;1.00;;;;;;5026589;28;20501;-86
2022/10/06 12:31:05;;;;;;;6.20;1.57;;;17.60;1.00;;;;;;4991913;28;20452;-85
2022/10/06 12:33:38;;;;;;;3.23;1.30;;;17.50;1.00;;;;;;4983145;28;20449;-83
2022/10/06 12:36:15;;;;;;;3.33;2.50;;;17.50;1.00;;;;;;5030670;28;20427;-86
2022/10/06 12:39:00;;;;;;;2.83;1.33;;;17.40;1.00;;;;;;5025912;28;20475;-85
2022/10/06 12:41:57;;;;;;;3.77;1.30;;;17.50;1.00;;;;;;5024454;28;20526;-85
2022/10/06 12:44:27;;;;;;;6.80;2.10;;;17.30;1.00;;;;;;5026098;28;20428;-83
2022/10/06 12:47:00;;;;;;;5.27;1.80;;;17.50;1.00;;;;;;5031077;28;20439;-84
2022/10/06 12:49:44;;;;;;;3.67;2.07;;;17.50;1.00;;;;;;5032942;28;20434;-84
2022/10/06 12:52:34;;;;;;;3.57;1.37;;;17.70;1.00;;;;;;5027394;28;20436;-85
2022/10/06 12:55:15;;;;;;;5.10;2.10;;;16.80;1.00;;;;;;5024033;28;20929;-85
2022/10/06 12:57:47;;;;;;;4.50;1.80;;;17.80;1.00;;;;;;5025032;28;20410;-86
2022/10/06 13:00:29;;;;;;;2.07;1.40;;;17.80;1.00;;;;;;5023656;28;20550;-85
2022/10/06 13:02:57;;;;;;;3.30;1.60;;;;;;;;;;5023694;28;20431;-86
2022/10/06 13:05:24;;;;;;;3.13;2.07;;;18.00;1.00;;;;;;5022223;28;20478;-86
2022/10/06 13:07:58;;;;;;;5.00;2.30;;;18.00;1.00;;;;;;5022171;28;20463;-86
2022/10/06 13:10:29;;;;;;;6.00;2.30;;;18.00;1.00;;;;;;5023181;28;20441;-85
2022/10/06 13:12:56;;;;;;;7.77;2.57;;;17.70;1.00;;;;;;5027277;28;20416;-85
2022/10/06 13:15:29;;;;;;;4.83;1.63;;;17.80;1.00;;;;;;5027197;28;20478;-85
2022/10/06 13:17:59;;;;;;;4.27;1.43;;;16.90;1.00;;;;;;5027033;28;20542;-85
2022/10/06 13:20:38;;;;;;;4.47;1.70;;;17.80;1.00;;;;;;5025000;28;20482;-86
2022/10/06 13:23:17;;;;;;;2.70;1.53;;;17.80;1.00;;;;;;5025930;28;20443;-85
2022/10/06 13:25:48;;;;;;;3.00;2.00;;;17.80;1.00;;;;;;5024808;28;20450;-86
2022/10/06 13:28:24;;;;;;;3.03;1.40;;;17.70;1.00;;;;;;5028341;28;20829;-86
2022/10/06 13:30:53;;;;;;;3.67;1.33;;;17.70;1.00;;;;;;5029054;28;20470;-86
2022/10/06 13:33:21;;;;;;;1.57;1.40;;;17.60;1.00;;;;;;5031698;28;20443;-86
2022/10/06 13:35:50;;;;;;;2.20;1.37;;;17.60;1.00;;;;;;5030422;28;20526;-87
2022/10/06 13:38:16;;;;;;;16.23;10.03;;;17.90;1.00;;;;;;5028379;28;20471;-86
2022/10/06 13:40:45;;;;;;;6.17;1.83;;;17.50;1.00;;;;;;5029466;28;20471;-87
2022/10/06 13:43:18;;;;;;;2.40;1.50;;;17.60;1.00;;;;;;5028542;28;20505;-85
2022/10/06 13:45:47;;;;;;;4.07;1.97;;;17.50;1.00;;;;;;5027669;28;20487;-86
2022/10/06 13:48:18;;;;;;;5.57;1.30;;;17.70;1.00;;;;;;5027820;28;20451;-86
2022/10/06 13:50:46;;;;;;;8.73;1.57;;;17.70;1.00;;;;;;5027610;28;20463;-86
2022/10/06 13:53:34;;;;;;;2.40;1.50;;;17.70;1.00;;;;;;5027345;28;20454;-85
2022/10/06 13:56:02;;;;;;;3.27;1.33;;;17.70;1.00;;;;;;5023805;28;20868;-86
2022/10/06 13:58:30;;;;;;;4.60;1.20;;;17.70;1.00;;;;;;5027494;28;20487;-86
2022/10/06 14:00:59;;;;;;;4.37;1.43;;;17.60;1.00;;;;;;5027471;28;20467;-86
2022/10/06 14:03:32;;;;;;;4.10;2.20;;;17.60;1.00;;;;;;5027955;28;20582;-86
2022/10/06 14:06:15;;;;;;;2.30;1.30;;;17.60;1.00;;;;;;5028299;28;20444;-85
2022/10/06 14:08:45;;;;;;;4.53;1.40;;;17.60;1.00;;;;;;5027401;28;20454;-86
2022/10/06 14:11:13;;;;;;;5.00;2.20;;;17.50;1.00;;;;;;5026850;28;20472;-86
2022/10/06 14:13:47;;;;;;;2.93;1.20;;;17.50;1.00;;;;;;5026504;28;20455;-87
2022/10/06 14:16:20;;;;;;;8.83;1.67;;;17.50;1.00;;;;;;5027959;28;20444;-86
2022/10/06 14:18:54;;;;;;;5.37;1.60;;;17.50;1.00;;;;;;5028566;28;20499;-86
2022/10/06 14:21:34;;;;;;;8.97;2.80;;;17.50;1.00;;;;;;5025840;28;20476;-86
2022/10/06 14:24:01;;;;;;;3.20;1.50;;;17.50;1.00;;;;;;5024732;28;20443;-86
2022/10/06 14:26:31;;;;;;;3.03;1.40;;;17.50;1.00;;;;;;5025931;28;20448;-86
2022/10/06 14:28:58;;;;;;;3.73;1.40;;;17.50;1.00;;;;;;5038530;28;20431;-85
2022/10/06 14:31:26;;;;;;;5.10;1.50;;;17.60;1.00;;;;;;5039959;28;20495;-85
2022/10/06 14:33:55;;;;;;;5.73;1.60;;;17.50;1.00;;;;;;5039747;28;20438;-85
2022/10/06 14:36:24;;;;;;;4.73;1.77;;;17.50;1.00;;;;;;5039644;28;20435;-84
2022/10/06 14:38:53;;;;;;;3.00;1.40;;;17.50;1.00;;;;;;5038128;28;20471;-84
2022/10/06 14:41:23;;;;;;;7.17;1.77;;;17.50;1.00;;;;;;5039039;28;20531;-84
2022/10/06 14:43:54;;;;;;;3.67;1.33;;;17.50;1.00;;;;;;5031949;28;20420;-86
2022/10/06 14:46:21;;;;;;;6.97;1.80;;;;;;;;;;5033347;28;20447;-84
2022/10/06 14:48:48;;;;;;;5.27;1.87;;;17.80;1.00;;;;;;5030198;28;20559;-84
2022/10/06 14:51:16;;;;;;;4.40;1.50;;;17.40;1.00;;;;;;5029640;28;20463;-85
2022/10/06 14:53:42;;;;;;;4.77;1.33;;;17.30;1.00;;;;;;5028180;28;20452;-85
2022/10/06 14:56:13;;;;;;;3.37;1.60;;;17.30;1.00;;;;;;5028060;28;20452;-84
2022/10/06 14:58:42;;;;;;;6.33;1.93;;;17.30;1.00;;;;;;5029698;28;20444;-85
2022/10/06 15:01:12;;;;;;;4.00;1.70;;;17.40;1.00;;;;;;5029254;28;20513;-85
2022/10/06 15:03:39;;;;;;;5.40;1.93;;;17.30;1.00;;;;;;5030193;28;20432;-85
2022/10/06 15:08:53;;;;;;;2.83;1.30;;;17.30;1.00;;;;;;5027515;28;20407;-85
2022/10/06 15:11:20;;;;;;;5.60;1.30;;;17.20;1.00;;;;;;5026553;28;20470;-86
2022/10/06 15:13:47;;;;;;;3.90;1.30;;;17.20;1.00;;;;;;5026377;28;20439;-86
2022/10/06 15:16:16;;;;;;;2.53;1.30;;;17.20;1.00;;;;;;5027648;28;20451;-86
2022/10/06 15:18:43;;;;;;;3.90;1.40;;;17.20;1.00;;;;;;5026470;28;20443;-86
2022/10/06 15:21:10;;;;;;;1.37;1.27;;;17.10;1.00;;;;;;5029596;28;20483;-85
2022/10/06 15:23:38;;;;;;;2.87;1.87;;;17.10;1.00;;;;;;5023890;28;20459;-84
2022/10/06 15:29:01;;;;;;;3.00;1.30;;;17.10;1.00;;;;;;5035066;28;20435;-85
2022/10/06 15:31:32;;;;;;;2.50;1.60;;;17.10;1.00;;;;;;5029345;28;20562;-85
2022/10/06 15:34:00;;;;;;;5.27;1.37;;;17.10;1.00;;;;;;5025937;28;20432;-85
2022/10/06 15:36:29;;;;;;;3.20;1.80;;;17.20;1.00;;;;;;5024819;28;20553;-84
2022/10/06 15:38:57;;;;;;;4.33;2.10;;;17.00;1.00;;;;;;5025242;28;20494;-85
2022/10/06 15:41:25;;;;;;;6.07;2.30;;;17.00;1.00;;;;;;5026907;28;20487;-85
2022/10/06 15:43:57;;;;;;;7.07;2.13;;;17.00;1.00;;;;;;5030226;28;20423;-86
2022/10/06 15:46:28;;;;;;;7.40;1.83;;;16.90;1.00;;;;;;5031608;28;20455;-85
2022/10/06 15:48:59;;;;;;;3.03;1.40;;;16.90;1.00;;;;;;5028336;28;20496;-86
2022/10/06 15:51:27;;;;;;;4.97;1.50;;;16.90;1.00;;;;;;5026406;28;20506;-86
2022/10/06 15:53:56;;;;;;;5.07;1.90;;;16.80;1.00;;;;;;5026359;28;20447;-86
2022/10/06 15:56:23;;;;;;;4.70;1.83;;;;;;;;;;5024969;28;20865;-86
2022/10/06 15:58:50;;;;;;;3.97;1.83;;;;;;;;;;5026983;28;20446;-86
2022/10/06 16:01:42;;;;;;;4.13;1.50;;;16.70;1.00;;;;;;5026751;28;20479;-86
2022/10/06 16:04:47;;;;;;;3.00;1.73;;;16.70;1.00;;;;;;5030891;28;20412;-85
2022/10/06 16:07:31;;;;;;;6.30;1.97;;;16.80;1.00;;;;;;5038144;28;20423;-86
2022/10/06 16:09:58;;;;;;;5.23;1.83;;;16.60;1.00;;;;;;5029236;28;20459;-86
2022/10/06 16:12:27;;;;;;;2.00;1.20;;;16.60;1.00;;;;;;5026311;28;20447;-86
2022/10/06 16:14:54;;;;;;;6.63;2.07;;;16.50;1.00;;;;;;5029933;28;20543;-85
2022/10/06 16:17:23;;;;;;;4.63;2.17;;;15.10;1.00;;;;;;5030404;28;20873;-85
2022/10/06 16:19:51;;;;;;;8.67;6.17;;;16.40;1.00;;;;;;5024069;28;20494;-85
2022/10/06 16:22:20;;;;;;;6.70;4.50;;;16.30;1.00;;;;;;5024891;28;20516;-84
2022/10/06 16:24:47;;;;;;;4.50;3.60;;;16.30;1.00;;;;;;5028579;28;20448;-86
2022/10/06 16:27:15;;;;;;;5.97;2.43;;;16.20;1.00;;;;;;5027740;28;20952;-85
2022/10/06 16:29:51;;;;;;;3.10;2.23;;;16.30;1.00;;;;;;5033077;28;20530;-83
2022/10/06 16:32:18;;;;;;;6.23;2.77;;;16.50;1.00;;;;;;5032762;28;20430;-85
2022/10/06 16:34:49;;;;;;;5.90;2.60;;;16.20;1.00;;;;;;5026139;28;20444;-86
2022/10/06 16:37:17;;;;;;;4.83;1.83;;;16.20;1.00;;;;;;5035835;28;20479;-83
2022/10/06 16:39:43;;;;;;;7.20;3.63;;;16.10;1.00;;;;;;5038485;28;20475;-85
2022/10/06 16:42:10;;;;;;;5.47;3.23;;;16.00;1.00;;;;;;5038343;28;20435;-84
2022/10/06 16:44:37;;;;;;;4.50;3.30;;;16.00;1.00;;;;;;5030530;28;20455;-85
2022/10/06 16:47:03;;;;;;;4.97;3.00;;;15.80;1.00;;;;;;5022696;28;20455;-85
2022/10/06 16:49:30;;;;;;;6.20;3.33;;;15.80;1.00;;;;;;5023100;28;20463;-84
2022/10/06 16:51:57;;;;;;;5.40;3.50;;;15.70;1.00;;;;;;5023897;28;20459;-87
2022/10/06 16:54:25;;;;;;;6.30;4.00;;;15.60;1.00;;;;;;5022115;28;20459;-86
2022/10/06 16:56:53;;;;;;;5.80;4.43;;;15.60;1.00;;;;;;5022382;28;20506;-84
2022/10/06 16:59:21;;;;;;;10.20;5.43;;;15.10;1.00;;;;;;5022692;28;20515;-85
2022/10/06 17:01:49;;;;;;;8.80;5.07;;;15.30;1.00;;;;;;5024150;28;20534;-84
2022/10/06 17:04:17;;;;;;;10.40;4.70;;;15.30;1.00;;;;;;5029021;28;20486;-86
2022/10/06 17:06:45;;;;;;;11.70;4.83;;;15.30;1.00;;;;;;5035179;28;20447;-84
2022/10/06 17:09:13;;;;;;;7.60;3.87;;;15.60;24.10;;;;;;5036366;28;20446;-86
2022/10/06 17:11:43;;;;;;;7.07;4.53;;;15.00;1.00;;;;;;5028807;28;20454;-86
2022/10/06 17:14:10;;;;;;;8.00;5.23;;;15.00;77.00;;;;;;5027341;28;20447;-86
2022/10/06 17:16:39;;;;;;;6.60;4.10;;;15.00;1.00;;;;;;5027070;28;20455;-86
2022/10/06 17:19:06;;;;;;;11.43;5.07;;;14.90;1.00;;;;;;5028125;28;20463;-85
2022/10/06 17:21:33;;;;;;;14.00;9.53;;;14.80;1.00;;;;;;5028077;28;20447;-87
2022/10/06 17:24:39;;;;;;;15.33;6.00;;;14.80;1.00;;;;;;5033168;28;20443;-85
2022/10/06 17:27:07;;;;;;;8.10;5.50;;;14.80;1.00;;;;;;5034335;28;20527;-84
2022/10/06 17:29:34;;;;;;;13.40;7.00;;;14.60;1.00;;;;;;5027450;28;20833;-84
2022/10/06 17:32:01;;;;;;;10.73;7.90;;;14.60;1.00;;;;;;5027841;28;20945;-86
2022/10/06 17:34:28;;;;;;;15.97;8.33;;;14.50;1.00;;;;;;5028077;28;20465;-85
2022/10/06 17:36:55;;;;;;;10.87;7.77;;;14.80;97.10;;;;;;5028068;28;20475;-85
2022/10/06 17:39:23;;;;;;;19.87;6.63;;;14.20;99.90;;;;;;5027129;28;20941;-85
2022/10/06 17:41:52;;;;;;;12.50;6.90;;;14.40;1.00;;;;;;5027878;28;20456;-86
2022/10/06 17:44:22;;;;;;;10.03;6.33;;;14.40;1.00;;;;;;5026395;28;20452;-86
2022/10/06 17:46:51;;;;;;;8.77;4.53;;;14.30;1.00;;;;;;5027153;28;20514;-87
2022/10/06 17:49:19;;;;;;;9.47;5.70;;;14.10;99.90;;;;;;5026272;28;20433;-86
2022/10/06 17:51:47;;;;;;;7.97;4.87;;;14.10;1.00;;;;;;5026564;28;20892;-85
2022/10/06 17:54:17;;;;;;;9.90;5.70;;;14.00;1.00;;;;;;5035661;28;20428;-85
2022/10/06 17:56:45;;;;;;;15.40;5.53;;;14.00;1.00;;;;;;5024999;28;20443;-85
2022/10/06 17:59:13;;;;;;;13.83;7.40;;;14.00;99.90;;;;;;5036077;28;20458;-86
2022/10/06 18:01:43;;;;;;;16.27;8.07;;;13.90;1.00;;;;;;5023537;28;20466;-86
2022/10/06 18:04:14;;;;;;;18.50;10.33;;;14.00;1.00;;;;;;5023957;28;20200;-86
2022/10/06 18:06:45;;;;;;;25.53;14.63;;;13.20;99.90;;;;;;5024920;28;20456;-87
2022/10/06 18:09:17;;;;;;;27.07;15.00;;;14.10;99.90;;;;;;5026913;28;20435;-87
2022/10/06 18:12:22;;;;;;;24.13;13.27;;;14.00;1.00;;;;;;5024416;28;20471;-88
2022/10/06 18:14:58;;;;;;;19.00;11.43;;;14.00;1.00;;;;;;5023763;28;20447;-88
2022/10/06 18:17:58;;;;;;;18.37;11.63;;;14.00;1.00;;;;;;5023936;28;20391;-85
2022/10/06 18:20:28;;;;;;;16.73;9.10;;;14.10;1.00;;;;;;5041114;22;20480;-81
2022/10/06 18:22:55;;;;;;;11.40;7.20;;;13.90;1.00;;;;;;5025840;28;20422;-84
2022/10/06 18:25:23;;;;;;;18.67;8.80;;;13.80;1.00;;;;;;5027826;28;20462;-80
2022/10/06 18:27:50;;;;;;;13.87;11.50;;;13.70;20.10;;;;;;5031934;28;20487;-83
2022/10/06 18:30:17;;;;;;;11.47;6.70;;;13.60;99.90;;;;;;5032241;28;20443;-83
2022/10/06 18:32:45;;;;;;;10.33;7.20;;;13.70;99.90;;;;;;5029237;28;20531;-82
2022/10/06 18:35:12;;;;;;;18.23;8.10;;;13.50;99.90;;;;;;5027188;28;20511;-83
2022/10/06 18:37:39;;;;;;;10.30;8.00;;;13.50;99.90;;;;;;5026592;28;20502;-82
2022/10/06 18:40:09;;;;;;;13.60;9.10;;;13.50;99.90;;;;;;5027505;28;20483;-82
2022/10/06 18:42:42;;;;;;;19.93;10.90;;;13.50;99.90;;;;;;5026776;28;20417;-81
2022/10/06 18:50:41;;;;;;;18.57;9.80;;;13.50;54.60;;;;;;5026240;28;20425;-82
2022/10/06 18:53:08;;;;;;;24.53;11.90;;;13.40;98.00;;;;;;5026567;28;20502;-82
2022/10/06 18:55:34;;;;;;;13.13;8.60;;;13.40;42.90;;;;;;5026641;28;20454;-82
2022/10/06 18:58:01;;;;;;;13.33;7.97;;;13.40;82.60;;;;;;5025299;28;20448;-82
2022/10/06 19:00:28;;;;;;;9.43;7.90;;;13.00;99.90;;;;;;5025102;28;20535;-82
2022/10/06 19:02:56;;;;;;;11.63;7.67;;;13.20;97.60;;;;;;5025109;28;20450;-83
2022/10/06 19:05:23;;;;;;;13.30;8.43;;;13.40;82.10;;;;;;5022488;28;20455;-81
2022/10/06 19:07:52;;;;;;;17.07;12.80;;;13.90;99.90;;;;;;5020735;28;20868;-82
2022/10/06 19:10:18;;;;;;;15.13;7.97;;;13.40;16.90;;;;;;5020498;28;20872;-83
2022/10/06 19:12:47;;;;;;;8.50;6.40;;;13.40;1.00;;;;;;5021515;28;20471;-82
2022/10/06 19:15:13;;;;;;;11.97;5.80;;;13.40;45.40;;;;;;5021655;28;20455;-83
2022/10/06 19:17:44;;;;;;;10.67;6.17;;;12.90;99.90;;;;;;5018745;28;20509;-81
2022/10/06 19:20:12;;;;;;;10.30;6.50;;;13.30;97.10;;;;;;5019148;28;20582;-81
2022/10/06 19:22:39;;;;;;;16.43;7.10;;;13.30;27.40;;;;;;5021149;28;20431;-83
2022/10/06 19:25:06;;;;;;;8.17;6.07;;;13.30;54.40;;;;;;5019317;28;20441;-82
2022/10/06 19:27:36;;;;;;;19.03;5.90;;;13.30;83.30;;;;;;5018700;28;20451;-82
2022/10/06 19:30:03;;;;;;;9.20;6.07;;;13.30;73.40;;;;;;5021309;28;20467;-82
2022/10/06 19:32:31;;;;;;;9.17;5.67;;;13.30;1.00;;;;;;5026047;28;20447;-82
2022/10/06 19:34:58;;;;;;;12.40;6.67;;;13.40;66.40;;;;;;5024359;28;20459;-82
2022/10/06 19:37:27;;;;;;;9.60;5.80;;;13.30;35.90;;;;;;5023354;28;20443;-81
2022/10/06 19:39:54;;;;;;;19.90;8.70;;;13.30;34.70;;;;;;5020042;28;20471;-82
2022/10/06 19:45:06;;;;;;;9.23;7.00;;;13.20;64.10;;;;;;5019462;28;20412;-82
2022/10/06 19:47:33;;;;;;;12.77;6.67;;;13.10;67.80;;;;;;5019193;28;20471;-81
2022/10/06 19:50:02;;;;;;;10.40;5.97;;;13.00;98.10;;;;;;5018530;28;20472;-81
2022/10/06 19:52:31;;;;;;;18.37;11.47;;;12.90;99.90;;;;;;5029593;28;20590;-83
2022/10/06 19:54:58;;;;;;;10.57;6.83;;;12.80;99.90;;;;;;5037502;28;20478;-83
2022/10/06 19:57:27;;;;;;;11.67;6.53;;;12.70;99.90;;;;;;5032831;28;20437;-81
2022/10/06 19:59:57;;;;;;;9.53;6.93;;;12.60;99.90;;;;;;5023255;28;20510;-82
2022/10/06 20:02:23;;;;;;;12.30;7.33;;;12.60;99.90;;;;;;5024674;28;20430;-82
2022/10/06 20:04:50;;;;;;;10.67;6.03;;;12.60;99.90;;;;;;5021597;28;20464;-84
2022/10/06 20:07:20;;;;;;;7.93;5.87;;;12.60;99.90;;;;;;5021400;28;20447;-83
2022/10/06 20:09:48;;;;;;;11.55;5.20;;;12.90;99.90;;;;;;5021590;28;20439;-82
2022/10/06 20:12:15;;;;;;;7.10;5.57;;;12.60;99.90;;;;;;5020336;28;20574;-82
2022/10/06 20:14:42;;;;;;;8.23;5.80;;;;;;;;;;5018655;28;20525;-81
2022/10/06 20:17:08;;;;;;;8.63;6.27;;;12.60;99.90;;;;;;5018794;28;20418;-82
2022/10/06 20:19:35;;;;;;;15.80;5.20;;;12.50;1.00;;;;;;5017333;28;20942;-81
2022/10/06 20:22:02;;;;;;;8.97;5.20;;;12.60;99.90;;;;;;5017665;28;20467;-82
2022/10/06 20:24:30;;;;;;;14.43;6.53;;;12.50;99.90;;;;;;5018185;28;20972;-82
2022/10/06 20:26:58;;;;;;;7.88;4.63;;;12.40;99.90;;;;;;5016883;28;20446;-82
2022/10/06 20:29:27;;;;;;;9.40;4.77;;;12.40;1.00;;;;;;5018094;28;20258;-81
2022/10/06 20:31:57;;;;;;;13.73;9.50;;;12.30;99.90;;;;;;5018745;28;20513;-81
2022/10/06 20:34:30;;;;;;;6.73;5.97;;;12.30;99.90;;;;;;5017149;28;20454;-81
2022/10/06 20:36:58;;;;;;;8.03;5.10;;;12.30;99.90;;;;;;5017070;28;20451;-82
2022/10/06 20:42:11;;;;;;;6.77;4.83;;;12.30;99.90;;;;;;5017505;28;20437;-82
2022/10/06 20:44:38;;;;;;;7.57;5.33;;;12.20;99.90;;;;;;5017697;28;20463;-81
2022/10/06 20:47:05;;;;;;;14.87;5.23;;;12.20;1.00;;;;;;5017821;28;20510;-81
2022/10/06 20:49:32;;;;;;;10.20;6.80;;;11.90;1.00;;;;;;5017423;28;20796;-82
2022/10/06 20:52:01;;;;;;;13.27;7.40;;;12.10;1.00;;;;;;5017570;28;20966;-82
2022/10/06 20:54:29;;;;;;;15.30;6.80;;;12.10;1.00;;;;;;5017766;28;20514;-80
2022/10/06 20:56:57;;;;;;;9.77;6.23;;;12.10;1.00;;;;;;5018611;28;20447;-81
2022/10/06 20:59:25;;;;;;;14.18;7.40;;;12.10;1.00;;;;;;5021212;28;20447;-83
2022/10/06 21:01:52;;;;;;;8.80;6.20;;;12.10;1.00;;;;;;5017503;28;20220;-82
2022/10/06 21:04:19;;;;;;;12.13;7.40;;;12.10;99.90;;;;;;5016509;28;20828;-82
2022/10/06 21:06:46;;;;;;;12.60;8.03;;;12.00;99.90;;;;;;5015752;28;20455;-81
2022/10/06 21:09:15;;;;;;;9.60;6.40;;;12.00;1.00;;;;;;5017295;28;20451;-82
2022/10/06 21:11:42;;;;;;;9.70;6.87;;;12.00;99.90;;;;;;5017018;28;20449;-82
2022/10/06 21:14:10;;;;;;;9.17;5.80;;;12.00;1.00;;;;;;5016051;28;20447;-82
2022/10/06 21:16:41;;;;;;;9.93;6.07;;;11.90;1.00;;;;;;5016106;28;20509;-82
2022/10/06 21:19:09;;;;;;;9.43;5.90;;;11.80;99.90;;;;;;5024620;28;20498;-83
2022/10/06 21:21:37;;;;;;;6.70;5.17;;;11.80;99.90;;;;;;5014926;28;21024;-82
2022/10/06 21:24:05;;;;;;;6.50;5.10;;;11.80;1.00;;;;;;5014821;28;20426;-82
2022/10/06 21:26:33;;;;;;;7.73;5.47;;;11.80;1.00;;;;;;5015148;28;20455;-81
2022/10/06 21:29:00;;;;;;;9.87;5.63;;;;;;;;;;5014533;28;20498;-82
2022/10/06 21:31:27;;;;;;;7.37;4.90;;;11.70;1.00;;;;;;5015443;28;20535;-82
2022/10/06 21:33:58;;;;;;;6.83;4.90;;;11.70;1.00;;;;;;5015894;28;20442;-81
2022/10/06 21:36:28;;;;;;;8.20;4.47;;;11.60;1.00;;;;;;5015852;28;20439;-83
2022/10/06 21:38:56;;;;;;;8.60;5.90;;;11.70;99.90;;;;;;5016042;28;20459;-82
2022/10/06 21:41:28;;;;;;;14.50;7.70;;;11.70;99.90;;;;;;5017237;28;20487;-82
2022/10/06 21:43:56;;;;;;;8.37;5.03;;;11.70;1.00;;;;;;5017756;28;20524;-83
2022/10/06 21:46:24;;;;;;;8.37;6.03;;;11.70;99.90;;;;;;5017896;28;20462;-84
2022/10/06 21:48:56;;;;;;;9.03;5.90;;;11.60;1.00;;;;;;5022195;28;20479;-83
2022/10/06 21:51:26;;;;;;;20.50;10.93;;;11.50;1.00;;;;;;5021832;28;20459;-83
2022/10/06 21:53:54;;;;;;;10.90;7.07;;;11.50;1.00;;;;;;5028346;28;20970;-84
2022/10/06 21:56:21;;;;;;;12.70;8.90;;;11.50;1.00;;;;;;5029548;28;20512;-83
2022/10/06 21:58:50;;;;;;;14.23;8.03;;;11.40;1.00;;;;;;5026676;28;20462;-82
2022/10/06 22:01:18;;;;;;;18.53;9.13;;;11.40;1.00;;;;;;5020998;28;20494;-82
2022/10/06 22:03:45;;;;;;;7.07;6.30;;;11.40;1.00;;;;;;5023170;28;20799;-83
2022/10/06 22:06:12;;;;;;;13.07;7.20;;;11.40;1.00;;;;;;5026233;28;20454;-82
2022/10/06 22:08:40;;;;;;;6.40;4.70;;;11.40;1.00;;;;;;5027148;28;20443;-82
2022/10/06 22:11:10;;;;;;;9.43;6.63;;;11.30;78.50;;;;;;5021890;28;20655;-83
2022/10/06 22:13:40;;;;;;;7.30;5.27;;;11.20;99.90;;;;;;5020290;28;20474;-83
2022/10/06 22:16:08;;;;;;;7.57;6.77;;;11.30;99.90;;;;;;5021007;28;20444;-82
2022/10/06 22:18:36;;;;;;;13.03;9.37;;;11.20;99.90;;;;;;5021578;28;20452;-82
2022/10/06 22:21:12;;;;;;;9.80;7.60;;;11.20;99.90;;;;;;5020126;28;20537;-82
2022/10/06 22:23:44;;;;;;;6.70;5.93;;;11.30;92.30;;;;;;5020690;28;20402;-82
2022/10/06 22:26:15;;;;;;;9.50;5.60;;;11.30;99.90;;;;;;5020907;28;20440;-82
2022/10/06 22:28:46;;;;;;;10.83;8.40;;;11.30;29.50;;;;;;5022726;28;20440;-82
2022/10/06 22:31:13;;;;;;;15.00;8.13;;;11.10;99.90;;;;;;5026181;28;20450;-82
2022/10/06 22:33:40;;;;;;;11.73;5.93;;;11.10;99.90;;;;;;5025129;28;20470;-82
2022/10/06 22:36:11;;;;;;;6.43;5.50;;;11.20;2.20;;;;;;5023312;28;20455;-82
2022/10/06 22:38:38;;;;;;;6.60;5.60;;;11.30;84.70;;;;;;5020164;28;20436;-82
2022/10/06 22:41:07;;;;;;;13.87;10.90;;;11.30;11.60;;;;;;5019562;28;20515;-83
2022/10/06 22:43:34;;;;;;;15.07;8.60;;;11.30;8.60;;;;;;5020664;28;20475;-83
2022/10/06 22:46:02;;;;;;;13.90;7.40;;;11.20;1.00;;;;;;5030464;28;20447;-82